< Typhoon 198516 1985 Season Typhoon 198518 >
Typhoon 198517 (VAL)
General InformationTrack Information on Google MapsDetailed Wind InformationList of All Images || Disaster Info.ResourceGoogle EarthGE AnimationAtom FeedGeoJSON
Detalied Best Track (Time Zone = UTC)
Year Month Day Hour Lat. Long. Pressure (hPa) Wind (kt) Class Image Chart
1985 9 13 00 12.5 143.0 1004 0 2 Image Chart
1985 9 13 06 13.7 141.8 1002 0 2 Image Chart
1985 9 13 12 14.5 140.5 1002 0 2 Image Chart
1985 9 13 18 15.5 139.5 1002 0 2 Image Chart
1985 9 14 00 16.5 138.0 1002 0 2 Image Chart
1985 9 14 06 17.3 136.6 1002 0 2 Image Chart
1985 9 14 12 17.5 135.0 1002 0 2 Image Chart
1985 9 14 18 17.7 133.5 1002 0 2 Image Chart
1985 9 15 00 18.0 132.0 1002 0 2 Image Chart
1985 9 15 06 19.0 130.5 996 45 3 Image Chart
1985 9 15 12 20.0 129.0 996 45 3 Image Chart
1985 9 15 18 20.5 127.2 998 45 3 Image Chart
1985 9 16 00 21.0 125.2 998 45 3 Image Chart
1985 9 16 06 21.3 123.3 998 45 3 Image Chart
1985 9 16 12 21.2 121.8 998 45 3 Image Chart
1985 9 16 18 21.2 121.0 998 45 3 Image Chart
1985 9 17 00 21.0 120.5 998 40 3 Image Chart
1985 9 17 06 21.5 120.0 998 40 3 Image Chart
1985 9 17 12 21.5 119.0 1000 35 3 Image Chart
1985 9 17 18 22.0 118.0 1004 0 2 Image Chart
1985 9 18 00 21.5 116.5 1006 0 2 Image Chart
1985 9 18 06 21.0 115.0 1006 0 2 Image Chart
Japan Meteorological Agency Best Track Data | Correction Date : 1992-10-21
< Typhoon 198516 1985 Season Typhoon 198518 >

Help